sensor_id;sensor_type;location;lat;lon;timestamp;P1;durP1;ratioP1;P2;durP2;ratioP2
27804;SDS011;15183;51.350;11.102;2024-01-11T00:01:29;67.95;;;30.33;;
27804;SDS011;15183;51.350;11.102;2024-01-11T00:03:56;76.25;;;33.60;;
27804;SDS011;15183;51.350;11.102;2024-01-11T00:06:22;83.63;;;34.63;;
27804;SDS011;15183;51.350;11.102;2024-01-11T00:08:49;74.20;;;33.78;;
27804;SDS011;15183;51.350;11.102;2024-01-11T00:11:15;78.65;;;34.28;;
27804;SDS011;15183;51.350;11.102;2024-01-11T00:13:44;73.90;;;32.22;;
27804;SDS011;15183;51.350;11.102;2024-01-11T00:16:11;72.10;;;31.77;;
27804;SDS011;15183;51.350;11.102;2024-01-11T00:18:38;68.45;;;31.25;;
27804;SDS011;15183;51.350;11.102;2024-01-11T00:21:04;70.25;;;30.80;;
27804;SDS011;15183;51.350;11.102;2024-01-11T00:23:31;68.78;;;30.77;;
27804;SDS011;15183;51.350;11.102;2024-01-11T00:25:57;70.97;;;31.33;;
27804;SDS011;15183;51.350;11.102;2024-01-11T00:28:25;67.80;;;31.60;;
27804;SDS011;15183;51.350;11.102;2024-01-11T00:30:51;76.40;;;32.05;;
27804;SDS011;15183;51.350;11.102;2024-01-11T00:33:17;67.55;;;30.65;;
27804;SDS011;15183;51.350;11.102;2024-01-11T00:35:44;67.43;;;30.17;;
27804;SDS011;15183;51.350;11.102;2024-01-11T00:38:10;69.78;;;30.88;;
27804;SDS011;15183;51.350;11.102;2024-01-11T00:40:37;75.85;;;32.78;;
27804;SDS011;15183;51.350;11.102;2024-01-11T00:43:04;70.68;;;31.88;;
27804;SDS011;15183;51.350;11.102;2024-01-11T00:45:30;71.57;;;31.15;;
27804;SDS011;15183;51.350;11.102;2024-01-11T00:47:57;66.10;;;29.73;;
27804;SDS011;15183;51.350;11.102;2024-01-11T00:50:23;71.53;;;30.88;;
27804;SDS011;15183;51.350;11.102;2024-01-11T00:52:49;65.75;;;28.77;;
27804;SDS011;15183;51.350;11.102;2024-01-11T00:55:16;68.35;;;30.05;;
27804;SDS011;15183;51.350;11.102;2024-01-11T00:57:42;65.95;;;29.35;;
27804;SDS011;15183;51.350;11.102;2024-01-11T01:00:09;64.47;;;29.02;;
27804;SDS011;15183;51.350;11.102;2024-01-11T01:02:39;65.60;;;28.48;;
27804;SDS011;15183;51.350;11.102;2024-01-11T01:05:06;76.22;;;29.65;;
27804;SDS011;15183;51.350;11.102;2024-01-11T01:07:33;60.30;;;27.65;;
27804;SDS011;15183;51.350;11.102;2024-01-11T01:09:59;59.72;;;28.00;;
27804;SDS011;15183;51.350;11.102;2024-01-11T01:12:26;62.25;;;27.90;;
27804;SDS011;15183;51.350;11.102;2024-01-11T01:14:52;69.40;;;30.75;;
27804;SDS011;15183;51.350;11.102;2024-01-11T01:17:18;69.90;;;30.05;;
27804;SDS011;15183;51.350;11.102;2024-01-11T01:19:45;71.78;;;30.88;;
27804;SDS011;15183;51.350;11.102;2024-01-11T01:22:11;66.20;;;29.35;;
27804;SDS011;15183;51.350;11.102;2024-01-11T01:24:38;64.13;;;29.17;;
27804;SDS011;15183;51.350;11.102;2024-01-11T01:27:04;65.68;;;29.30;;
27804;SDS011;15183;51.350;11.102;2024-01-11T01:29:31;70.13;;;29.55;;
27804;SDS011;15183;51.350;11.102;2024-01-11T01:31:57;57.17;;;27.30;;
27804;SDS011;15183;51.350;11.102;2024-01-11T01:34:23;62.53;;;26.83;;
27804;SDS011;15183;51.350;11.102;2024-01-11T01:36:50;56.55;;;26.60;;
27804;SDS011;15183;51.350;11.102;2024-01-11T01:39:16;57.83;;;26.83;;
27804;SDS011;15183;51.350;11.102;2024-01-11T01:41:43;57.90;;;27.20;;
27804;SDS011;15183;51.350;11.102;2024-01-11T01:44:09;57.72;;;26.70;;
27804;SDS011;15183;51.350;11.102;2024-01-11T01:46:35;65.13;;;28.52;;
27804;SDS011;15183;51.350;11.102;2024-01-11T01:49:03;65.57;;;28.77;;
27804;SDS011;15183;51.350;11.102;2024-01-11T01:51:30;54.75;;;27.10;;
27804;SDS011;15183;51.350;11.102;2024-01-11T01:53:57;61.80;;;27.65;;
27804;SDS011;15183;51.350;11.102;2024-01-11T01:56:25;68.03;;;27.40;;
27804;SDS011;15183;51.350;11.102;2024-01-11T01:58:53;56.00;;;27.08;;
27804;SDS011;15183;51.350;11.102;2024-01-11T02:01:20;63.20;;;27.92;;
27804;SDS011;15183;51.350;11.102;2024-01-11T02:03:51;54.50;;;25.67;;
27804;SDS011;15183;51.350;11.102;2024-01-11T02:06:21;61.65;;;27.65;;
27804;SDS011;15183;51.350;11.102;2024-01-11T02:08:51;62.70;;;27.02;;
27804;SDS011;15183;51.350;11.102;2024-01-11T02:11:20;64.53;;;27.55;;
27804;SDS011;15183;51.350;11.102;2024-01-11T02:13:47;67.25;;;27.52;;
27804;SDS011;15183;51.350;11.102;2024-01-11T02:16:14;60.88;;;27.52;;
27804;SDS011;15183;51.350;11.102;2024-01-11T02:18:40;60.45;;;26.65;;
27804;SDS011;15183;51.350;11.102;2024-01-11T02:21:09;58.40;;;26.65;;
27804;SDS011;15183;51.350;11.102;2024-01-11T02:23:42;59.78;;;28.00;;
27804;SDS011;15183;51.350;11.102;2024-01-11T02:26:29;55.65;;;25.83;;
27804;SDS011;15183;51.350;11.102;2024-01-11T02:28:56;61.65;;;26.13;;
27804;SDS011;15183;51.350;11.102;2024-01-11T02:31:22;60.30;;;26.13;;
27804;SDS011;15183;51.350;11.102;2024-01-11T02:33:53;57.00;;;25.77;;
27804;SDS011;15183;51.350;11.102;2024-01-11T02:36:21;64.25;;;27.95;;
27804;SDS011;15183;51.350;11.102;2024-01-11T02:38:47;59.38;;;26.05;;
27804;SDS011;15183;51.350;11.102;2024-01-11T02:44:57;62.20;;;26.30;;
27804;SDS011;15183;51.350;11.102;2024-01-11T02:47:23;66.68;;;28.90;;
27804;SDS011;15183;51.350;11.102;2024-01-11T02:49:50;61.38;;;28.05;;
27804;SDS011;15183;51.350;11.102;2024-01-11T02:52:17;63.97;;;28.60;;
27804;SDS011;15183;51.350;11.102;2024-01-11T02:54:43;63.20;;;27.63;;
27804;SDS011;15183;51.350;11.102;2024-01-11T03:00:51;58.88;;;25.17;;
27804;SDS011;15183;51.350;11.102;2024-01-11T03:03:17;61.30;;;25.58;;
27804;SDS011;15183;51.350;11.102;2024-01-11T03:05:44;55.60;;;25.70;;
27804;SDS011;15183;51.350;11.102;2024-01-11T03:08:10;61.72;;;26.27;;
27804;SDS011;15183;51.350;11.102;2024-01-11T03:10:37;59.95;;;25.50;;
27804;SDS011;15183;51.350;11.102;2024-01-11T03:13:05;56.65;;;25.52;;
27804;SDS011;15183;51.350;11.102;2024-01-11T03:15:33;62.03;;;25.88;;
27804;SDS011;15183;51.350;11.102;2024-01-11T03:17:59;59.13;;;26.10;;
27804;SDS011;15183;51.350;11.102;2024-01-11T03:20:25;57.88;;;26.33;;
27804;SDS011;15183;51.350;11.102;2024-01-11T03:22:52;63.83;;;28.10;;
27804;SDS011;15183;51.350;11.102;2024-01-11T03:25:18;75.57;;;30.02;;
27804;SDS011;15183;51.350;11.102;2024-01-11T03:27:45;57.90;;;26.15;;
27804;SDS011;15183;51.350;11.102;2024-01-11T03:30:12;55.60;;;25.63;;
27804;SDS011;15183;51.350;11.102;2024-01-11T03:32:38;58.70;;;26.35;;
27804;SDS011;15183;51.350;11.102;2024-01-11T03:35:08;60.60;;;26.13;;
27804;SDS011;15183;51.350;11.102;2024-01-11T03:37:35;57.15;;;25.48;;
27804;SDS011;15183;51.350;11.102;2024-01-11T03:40:02;53.17;;;25.77;;
27804;SDS011;15183;51.350;11.102;2024-01-11T03:42:29;55.28;;;24.50;;
27804;SDS011;15183;51.350;11.102;2024-01-11T03:44:55;58.13;;;24.88;;
27804;SDS011;15183;51.350;11.102;2024-01-11T03:47:22;63.13;;;27.75;;
27804;SDS011;15183;51.350;11.102;2024-01-11T03:49:48;65.53;;;27.30;;
27804;SDS011;15183;51.350;11.102;2024-01-11T03:52:15;65.57;;;29.30;;
27804;SDS011;15183;51.350;11.102;2024-01-11T03:54:41;66.63;;;27.38;;
27804;SDS011;15183;51.350;11.102;2024-01-11T03:57:08;55.67;;;25.42;;
27804;SDS011;15183;51.350;11.102;2024-01-11T03:59:34;61.45;;;27.38;;
27804;SDS011;15183;51.350;11.102;2024-01-11T04:02:00;54.13;;;25.13;;
27804;SDS011;15183;51.350;11.102;2024-01-11T04:04:27;53.45;;;25.17;;
27804;SDS011;15183;51.350;11.102;2024-01-11T04:06:53;58.72;;;24.88;;
27804;SDS011;15183;51.350;11.102;2024-01-11T04:09:20;57.42;;;25.10;;
27804;SDS011;15183;51.350;11.102;2024-01-11T04:11:46;66.10;;;27.02;;
27804;SDS011;15183;51.350;11.102;2024-01-11T04:14:12;62.08;;;26.73;;
27804;SDS011;15183;51.350;11.102;2024-01-11T04:16:39;63.30;;;28.10;;
27804;SDS011;15183;51.350;11.102;2024-01-11T04:19:15;72.90;;;30.60;;
27804;SDS011;15183;51.350;11.102;2024-01-11T04:21:42;64.68;;;29.80;;
27804;SDS011;15183;51.350;11.102;2024-01-11T04:24:08;61.67;;;25.75;;
27804;SDS011;15183;51.350;11.102;2024-01-11T04:26:35;58.30;;;25.80;;
27804;SDS011;15183;51.350;11.102;2024-01-11T04:29:01;54.70;;;24.17;;
27804;SDS011;15183;51.350;11.102;2024-01-11T04:31:28;56.25;;;24.75;;
27804;SDS011;15183;51.350;11.102;2024-01-11T04:33:54;66.70;;;28.73;;
27804;SDS011;15183;51.350;11.102;2024-01-11T04:36:21;55.17;;;23.50;;
27804;SDS011;15183;51.350;11.102;2024-01-11T04:38:47;54.13;;;24.25;;
27804;SDS011;15183;51.350;11.102;2024-01-11T04:41:14;54.35;;;24.02;;
27804;SDS011;15183;51.350;11.102;2024-01-11T04:43:42;60.83;;;28.27;;
27804;SDS011;15183;51.350;11.102;2024-01-11T04:46:12;72.88;;;31.25;;
27804;SDS011;15183;51.350;11.102;2024-01-11T04:48:43;65.28;;;28.33;;
27804;SDS011;15183;51.350;11.102;2024-01-11T04:51:10;59.03;;;25.52;;
27804;SDS011;15183;51.350;11.102;2024-01-11T04:57:19;59.25;;;24.20;;
27804;SDS011;15183;51.350;11.102;2024-01-11T04:59:46;56.75;;;23.17;;
27804;SDS011;15183;51.350;11.102;2024-01-11T05:02:12;52.13;;;24.65;;
27804;SDS011;15183;51.350;11.102;2024-01-11T05:04:38;53.33;;;23.10;;
27804;SDS011;15183;51.350;11.102;2024-01-11T05:07:05;56.72;;;26.15;;
27804;SDS011;15183;51.350;11.102;2024-01-11T05:09:31;55.42;;;23.58;;
27804;SDS011;15183;51.350;11.102;2024-01-11T05:11:58;60.35;;;25.90;;
27804;SDS011;15183;51.350;11.102;2024-01-11T05:14:24;75.85;;;30.58;;
27804;SDS011;15183;51.350;11.102;2024-01-11T05:16:51;67.35;;;26.92;;
27804;SDS011;15183;51.350;11.102;2024-01-11T05:19:17;60.65;;;26.60;;
27804;SDS011;15183;51.350;11.102;2024-01-11T05:21:43;59.78;;;25.42;;
27804;SDS011;15183;51.350;11.102;2024-01-11T05:24:10;71.32;;;29.98;;
27804;SDS011;15183;51.350;11.102;2024-01-11T05:26:36;69.40;;;29.65;;
27804;SDS011;15183;51.350;11.102;2024-01-11T05:29:03;73.43;;;32.33;;
27804;SDS011;15183;51.350;11.102;2024-01-11T05:31:30;70.32;;;30.38;;
27804;SDS011;15183;51.350;11.102;2024-01-11T05:33:56;81.90;;;32.53;;
27804;SDS011;15183;51.350;11.102;2024-01-11T05:36:23;66.32;;;29.55;;
27804;SDS011;15183;51.350;11.102;2024-01-11T05:38:49;72.07;;;32.45;;
27804;SDS011;15183;51.350;11.102;2024-01-11T05:41:16;67.30;;;27.13;;
27804;SDS011;15183;51.350;11.102;2024-01-11T05:43:42;57.50;;;25.10;;
27804;SDS011;15183;51.350;11.102;2024-01-11T05:46:09;66.45;;;25.98;;
27804;SDS011;15183;51.350;11.102;2024-01-11T05:48:36;74.57;;;30.83;;
27804;SDS011;15183;51.350;11.102;2024-01-11T05:51:02;65.82;;;27.20;;
27804;SDS011;15183;51.350;11.102;2024-01-11T05:53:29;64.43;;;26.90;;
27804;SDS011;15183;51.350;11.102;2024-01-11T05:55:55;58.22;;;25.92;;
27804;SDS011;15183;51.350;11.102;2024-01-11T05:58:22;57.15;;;24.08;;
27804;SDS011;15183;51.350;11.102;2024-01-11T06:00:48;67.35;;;26.50;;
27804;SDS011;15183;51.350;11.102;2024-01-11T06:03:15;59.40;;;24.65;;
27804;SDS011;15183;51.350;11.102;2024-01-11T06:05:41;52.95;;;23.08;;
27804;SDS011;15183;51.350;11.102;2024-01-11T06:08:07;53.15;;;24.05;;
27804;SDS011;15183;51.350;11.102;2024-01-11T06:10:34;54.83;;;22.83;;
27804;SDS011;15183;51.350;11.102;2024-01-11T06:13:00;51.90;;;22.80;;
27804;SDS011;15183;51.350;11.102;2024-01-11T06:15:27;63.92;;;27.45;;
27804;SDS011;15183;51.350;11.102;2024-01-11T06:17:53;76.93;;;29.60;;
27804;SDS011;15183;51.350;11.102;2024-01-11T06:20:19;71.80;;;28.92;;
27804;SDS011;15183;51.350;11.102;2024-01-11T06:22:46;65.30;;;26.92;;
27804;SDS011;15183;51.350;11.102;2024-01-11T06:25:12;59.83;;;25.85;;
27804;SDS011;15183;51.350;11.102;2024-01-11T06:27:40;69.15;;;27.08;;
27804;SDS011;15183;51.350;11.102;2024-01-11T06:30:09;53.90;;;24.40;;
27804;SDS011;15183;51.350;11.102;2024-01-11T06:32:36;54.03;;;23.40;;
27804;SDS011;15183;51.350;11.102;2024-01-11T06:35:02;59.15;;;25.02;;
27804;SDS011;15183;51.350;11.102;2024-01-11T06:37:29;48.83;;;21.42;;
27804;SDS011;15183;51.350;11.102;2024-01-11T06:39:56;51.22;;;22.92;;
27804;SDS011;15183;51.350;11.102;2024-01-11T06:42:22;57.25;;;26.25;;
27804;SDS011;15183;51.350;11.102;2024-01-11T06:44:49;52.22;;;23.40;;
27804;SDS011;15183;51.350;11.102;2024-01-11T06:47:15;52.00;;;23.75;;
27804;SDS011;15183;51.350;11.102;2024-01-11T06:49:42;55.85;;;25.83;;
27804;SDS011;15183;51.350;11.102;2024-01-11T06:52:08;56.72;;;25.38;;
27804;SDS011;15183;51.350;11.102;2024-01-11T06:54:35;70.80;;;29.30;;
27804;SDS011;15183;51.350;11.102;2024-01-11T06:57:01;57.45;;;25.50;;
27804;SDS011;15183;51.350;11.102;2024-01-11T06:59:28;53.45;;;24.08;;
27804;SDS011;15183;51.350;11.102;2024-01-11T07:01:54;61.20;;;26.00;;
27804;SDS011;15183;51.350;11.102;2024-01-11T07:04:20;54.58;;;24.73;;
27804;SDS011;15183;51.350;11.102;2024-01-11T07:06:47;58.10;;;24.80;;
27804;SDS011;15183;51.350;11.102;2024-01-11T07:09:14;58.90;;;25.70;;
27804;SDS011;15183;51.350;11.102;2024-01-11T07:11:43;58.72;;;25.70;;
27804;SDS011;15183;51.350;11.102;2024-01-11T07:14:09;57.60;;;25.20;;
27804;SDS011;15183;51.350;11.102;2024-01-11T07:16:36;59.38;;;26.75;;
27804;SDS011;15183;51.350;11.102;2024-01-11T07:19:02;63.95;;;26.52;;
27804;SDS011;15183;51.350;11.102;2024-01-11T07:21:29;57.63;;;24.73;;
27804;SDS011;15183;51.350;11.102;2024-01-11T07:23:59;62.75;;;27.30;;
27804;SDS011;15183;51.350;11.102;2024-01-11T07:26:26;63.15;;;26.67;;
27804;SDS011;15183;51.350;11.102;2024-01-11T07:28:53;66.05;;;29.80;;
27804;SDS011;15183;51.350;11.102;2024-01-11T07:31:22;65.53;;;28.48;;
27804;SDS011;15183;51.350;11.102;2024-01-11T07:33:49;65.70;;;28.35;;
27804;SDS011;15183;51.350;11.102;2024-01-11T07:36:16;64.22;;;27.60;;
27804;SDS011;15183;51.350;11.102;2024-01-11T07:41:56;74.47;;;30.52;;
27804;SDS011;15183;51.350;11.102;2024-01-11T07:44:23;73.78;;;31.35;;
27804;SDS011;15183;51.350;11.102;2024-01-11T07:46:49;67.00;;;31.20;;
27804;SDS011;15183;51.350;11.102;2024-01-11T07:49:15;68.47;;;29.10;;
27804;SDS011;15183;51.350;11.102;2024-01-11T07:51:42;66.00;;;29.08;;
27804;SDS011;15183;51.350;11.102;2024-01-11T07:57:50;72.60;;;30.05;;
27804;SDS011;15183;51.350;11.102;2024-01-11T08:00:16;87.50;;;35.75;;
27804;SDS011;15183;51.350;11.102;2024-01-11T08:02:43;102.10;;;39.03;;
27804;SDS011;15183;51.350;11.102;2024-01-11T08:05:09;97.07;;;37.83;;
27804;SDS011;15183;51.350;11.102;2024-01-11T08:07:36;83.72;;;34.47;;
27804;SDS011;15183;51.350;11.102;2024-01-11T08:10:02;82.95;;;35.67;;
27804;SDS011;15183;51.350;11.102;2024-01-11T08:12:29;82.35;;;34.70;;
27804;SDS011;15183;51.350;11.102;2024-01-11T08:14:56;94.90;;;41.35;;
27804;SDS011;15183;51.350;11.102;2024-01-11T08:17:22;88.28;;;38.92;;
27804;SDS011;15183;51.350;11.102;2024-01-11T08:19:49;79.03;;;36.20;;
27804;SDS011;15183;51.350;11.102;2024-01-11T08:22:15;87.50;;;38.67;;
27804;SDS011;15183;51.350;11.102;2024-01-11T08:24:42;80.72;;;35.42;;
27804;SDS011;15183;51.350;11.102;2024-01-11T08:27:08;75.75;;;34.20;;
27804;SDS011;15183;51.350;11.102;2024-01-11T08:33:16;82.70;;;35.72;;
27804;SDS011;15183;51.350;11.102;2024-01-11T08:35:42;77.75;;;32.30;;
27804;SDS011;15183;51.350;11.102;2024-01-11T08:38:09;81.50;;;35.28;;
27804;SDS011;15183;51.350;11.102;2024-01-11T08:40:35;78.60;;;35.10;;
27804;SDS011;15183;51.350;11.102;2024-01-11T08:43:02;77.70;;;36.40;;
27804;SDS011;15183;51.350;11.102;2024-01-11T08:45:29;85.15;;;37.97;;
27804;SDS011;15183;51.350;11.102;2024-01-11T08:47:56;85.25;;;38.55;;
27804;SDS011;15183;51.350;11.102;2024-01-11T08:50:22;89.03;;;40.00;;
27804;SDS011;15183;51.350;11.102;2024-01-11T08:52:49;91.55;;;38.00;;
27804;SDS011;15183;51.350;11.102;2024-01-11T08:55:16;88.72;;;39.60;;
27804;SDS011;15183;51.350;11.102;2024-01-11T08:57:42;88.30;;;40.08;;
27804;SDS011;15183;51.350;11.102;2024-01-11T09:00:08;82.25;;;38.00;;
27804;SDS011;15183;51.350;11.102;2024-01-11T09:02:35;85.90;;;38.58;;
27804;SDS011;15183;51.350;11.102;2024-01-11T09:05:02;80.68;;;36.22;;
27804;SDS011;15183;51.350;11.102;2024-01-11T09:07:32;82.78;;;38.25;;
27804;SDS011;15183;51.350;11.102;2024-01-11T09:09:59;80.40;;;35.28;;
27804;SDS011;15183;51.350;11.102;2024-01-11T09:12:25;77.45;;;35.95;;
27804;SDS011;15183;51.350;11.102;2024-01-11T09:14:52;89.10;;;41.22;;
27804;SDS011;15183;51.350;11.102;2024-01-11T09:17:18;94.88;;;43.75;;
27804;SDS011;15183;51.350;11.102;2024-01-11T09:19:45;91.38;;;42.42;;
27804;SDS011;15183;51.350;11.102;2024-01-11T09:22:11;90.40;;;39.20;;
27804;SDS011;15183;51.350;11.102;2024-01-11T09:24:37;92.68;;;41.13;;
27804;SDS011;15183;51.350;11.102;2024-01-11T09:27:04;90.72;;;39.28;;
27804;SDS011;15183;51.350;11.102;2024-01-11T09:29:30;107.47;;;48.25;;
27804;SDS011;15183;51.350;11.102;2024-01-11T09:31:58;106.25;;;49.17;;
27804;SDS011;15183;51.350;11.102;2024-01-11T09:34:25;107.40;;;48.05;;
27804;SDS011;15183;51.350;11.102;2024-01-11T09:36:51;101.18;;;46.75;;
27804;SDS011;15183;51.350;11.102;2024-01-11T09:39:18;100.07;;;46.25;;
27804;SDS011;15183;51.350;11.102;2024-01-11T09:41:51;110.43;;;50.35;;
27804;SDS011;15183;51.350;11.102;2024-01-11T09:44:42;108.85;;;48.35;;
27804;SDS011;15183;51.350;11.102;2024-01-11T09:47:10;108.13;;;49.80;;
27804;SDS011;15183;51.350;11.102;2024-01-11T09:49:38;112.35;;;50.85;;
27804;SDS011;15183;51.350;11.102;2024-01-11T09:52:06;104.82;;;48.20;;
27804;SDS011;15183;51.350;11.102;2024-01-11T09:54:36;117.03;;;52.00;;
27804;SDS011;15183;51.350;11.102;2024-01-11T09:57:05;116.10;;;50.88;;
27804;SDS011;15183;51.350;11.102;2024-01-11T09:59:35;112.95;;;53.42;;
27804;SDS011;15183;51.350;11.102;2024-01-11T10:02:02;112.80;;;52.45;;
27804;SDS011;15183;51.350;11.102;2024-01-11T10:08:10;111.85;;;50.78;;
27804;SDS011;15183;51.350;11.102;2024-01-11T10:10:37;109.13;;;48.00;;
27804;SDS011;15183;51.350;11.102;2024-01-11T10:13:05;109.20;;;49.55;;
27804;SDS011;15183;51.350;11.102;2024-01-11T10:15:31;121.22;;;52.58;;
27804;SDS011;15183;51.350;11.102;2024-01-11T10:17:58;136.43;;;61.38;;
27804;SDS011;15183;51.350;11.102;2024-01-11T10:20:24;135.63;;;62.92;;
27804;SDS011;15183;51.350;11.102;2024-01-11T10:22:50;131.27;;;60.63;;
27804;SDS011;15183;51.350;11.102;2024-01-11T10:25:18;141.90;;;66.28;;
27804;SDS011;15183;51.350;11.102;2024-01-11T10:27:44;139.27;;;65.30;;
27804;SDS011;15183;51.350;11.102;2024-01-11T10:30:11;137.55;;;63.28;;
27804;SDS011;15183;51.350;11.102;2024-01-11T10:32:42;141.02;;;64.15;;
27804;SDS011;15183;51.350;11.102;2024-01-11T10:35:14;155.18;;;72.53;;
27804;SDS011;15183;51.350;11.102;2024-01-11T10:37:43;147.32;;;68.18;;
27804;SDS011;15183;51.350;11.102;2024-01-11T10:40:10;123.43;;;54.80;;
27804;SDS011;15183;51.350;11.102;2024-01-11T10:42:43;85.30;;;39.92;;
27804;SDS011;15183;51.350;11.102;2024-01-11T10:45:15;87.20;;;39.50;;
27804;SDS011;15183;51.350;11.102;2024-01-11T10:47:47;80.18;;;36.67;;
27804;SDS011;15183;51.350;11.102;2024-01-11T10:50:22;75.85;;;35.65;;
27804;SDS011;15183;51.350;11.102;2024-01-11T10:52:53;90.68;;;44.00;;
27804;SDS011;15183;51.350;11.102;2024-01-11T10:55:20;89.00;;;41.90;;
27804;SDS011;15183;51.350;11.102;2024-01-11T10:57:48;87.93;;;40.63;;
27804;SDS011;15183;51.350;11.102;2024-01-11T11:00:16;81.38;;;39.55;;
27804;SDS011;15183;51.350;11.102;2024-01-11T11:02:44;90.70;;;42.38;;
27804;SDS011;15183;51.350;11.102;2024-01-11T11:05:12;82.30;;;38.65;;
27804;SDS011;15183;51.350;11.102;2024-01-11T11:07:41;85.45;;;39.88;;
27804;SDS011;15183;51.350;11.102;2024-01-11T11:10:08;82.78;;;36.40;;
27804;SDS011;15183;51.350;11.102;2024-01-11T11:12:36;87.85;;;39.70;;
27804;SDS011;15183;51.350;11.102;2024-01-11T11:15:04;83.85;;;39.10;;
27804;SDS011;15183;51.350;11.102;2024-01-11T11:17:32;80.72;;;36.22;;
27804;SDS011;15183;51.350;11.102;2024-01-11T11:19:58;78.85;;;36.55;;
27804;SDS011;15183;51.350;11.102;2024-01-11T11:22:26;96.68;;;45.15;;
27804;SDS011;15183;51.350;11.102;2024-01-11T11:25:02;86.57;;;39.67;;
27804;SDS011;15183;51.350;11.102;2024-01-11T11:27:33;73.15;;;34.75;;
27804;SDS011;15183;51.350;11.102;2024-01-11T11:30:00;84.30;;;38.40;;
27804;SDS011;15183;51.350;11.102;2024-01-11T11:32:34;73.22;;;32.72;;
27804;SDS011;15183;51.350;11.102;2024-01-11T11:35:07;78.97;;;37.50;;
27804;SDS011;15183;51.350;11.102;2024-01-11T11:37:37;111.72;;;51.50;;
27804;SDS011;15183;51.350;11.102;2024-01-11T11:40:05;107.28;;;53.22;;
27804;SDS011;15183;51.350;11.102;2024-01-11T11:42:39;82.13;;;38.42;;
27804;SDS011;15183;51.350;11.102;2024-01-11T11:45:08;83.30;;;41.60;;
27804;SDS011;15183;51.350;11.102;2024-01-11T11:47:38;71.32;;;36.42;;
27804;SDS011;15183;51.350;11.102;2024-01-11T11:50:08;83.80;;;41.13;;
27804;SDS011;15183;51.350;11.102;2024-01-11T11:52:37;86.78;;;41.15;;
27804;SDS011;15183;51.350;11.102;2024-01-11T11:55:04;96.28;;;46.50;;
27804;SDS011;15183;51.350;11.102;2024-01-11T11:57:34;92.65;;;43.53;;
27804;SDS011;15183;51.350;11.102;2024-01-11T12:00:02;84.80;;;39.25;;
27804;SDS011;15183;51.350;11.102;2024-01-11T12:02:32;83.38;;;40.28;;
27804;SDS011;15183;51.350;11.102;2024-01-11T12:05:02;92.35;;;43.83;;
27804;SDS011;15183;51.350;11.102;2024-01-11T12:07:29;106.95;;;48.28;;
27804;SDS011;15183;51.350;11.102;2024-01-11T12:09:57;105.50;;;50.15;;
27804;SDS011;15183;51.350;11.102;2024-01-11T12:12:23;104.32;;;49.97;;
27804;SDS011;15183;51.350;11.102;2024-01-11T12:14:50;108.15;;;52.72;;
27804;SDS011;15183;51.350;11.102;2024-01-11T12:17:16;118.22;;;55.60;;
27804;SDS011;15183;51.350;11.102;2024-01-11T12:19:42;95.82;;;48.63;;
27804;SDS011;15183;51.350;11.102;2024-01-11T12:22:09;94.25;;;45.42;;
27804;SDS011;15183;51.350;11.102;2024-01-11T12:24:35;91.80;;;43.15;;
27804;SDS011;15183;51.350;11.102;2024-01-11T12:27:02;93.63;;;46.40;;
27804;SDS011;15183;51.350;11.102;2024-01-11T12:29:29;90.85;;;42.95;;
27804;SDS011;15183;51.350;11.102;2024-01-11T12:31:56;87.90;;;42.97;;
27804;SDS011;15183;51.350;11.102;2024-01-11T12:34:24;88.38;;;43.10;;
27804;SDS011;15183;51.350;11.102;2024-01-11T12:36:52;74.55;;;37.08;;
27804;SDS011;15183;51.350;11.102;2024-01-11T12:39:26;83.05;;;41.90;;
27804;SDS011;15183;51.350;11.102;2024-01-11T12:41:54;86.40;;;43.22;;
27804;SDS011;15183;51.350;11.102;2024-01-11T12:44:23;82.18;;;41.80;;
27804;SDS011;15183;51.350;11.102;2024-01-11T12:46:51;83.53;;;43.20;;
27804;SDS011;15183;51.350;11.102;2024-01-11T12:49:18;68.88;;;35.50;;
27804;SDS011;15183;51.350;11.102;2024-01-11T12:51:44;84.80;;;41.28;;
27804;SDS011;15183;51.350;11.102;2024-01-11T12:54:14;80.65;;;41.22;;
27804;SDS011;15183;51.350;11.102;2024-01-11T12:56:42;75.70;;;39.17;;
27804;SDS011;15183;51.350;11.102;2024-01-11T12:59:09;80.63;;;43.05;;
27804;SDS011;15183;51.350;11.102;2024-01-11T13:01:36;99.82;;;49.83;;
27804;SDS011;15183;51.350;11.102;2024-01-11T13:04:05;96.03;;;45.22;;
27804;SDS011;15183;51.350;11.102;2024-01-11T13:06:33;106.47;;;47.63;;
27804;SDS011;15183;51.350;11.102;2024-01-11T13:09:01;84.40;;;42.92;;
27804;SDS011;15183;51.350;11.102;2024-01-11T13:11:28;100.63;;;46.97;;
27804;SDS011;15183;51.350;11.102;2024-01-11T13:13:55;119.65;;;54.50;;
27804;SDS011;15183;51.350;11.102;2024-01-11T13:16:24;89.32;;;44.58;;
27804;SDS011;15183;51.350;11.102;2024-01-11T13:18:51;83.85;;;39.75;;
27804;SDS011;15183;51.350;11.102;2024-01-11T13:21:17;79.10;;;37.13;;
27804;SDS011;15183;51.350;11.102;2024-01-11T13:23:43;85.43;;;40.90;;
27804;SDS011;15183;51.350;11.102;2024-01-11T13:26:10;107.15;;;49.55;;
27804;SDS011;15183;51.350;11.102;2024-01-11T13:28:36;95.38;;;45.35;;
27804;SDS011;15183;51.350;11.102;2024-01-11T13:31:03;93.93;;;46.53;;
27804;SDS011;15183;51.350;11.102;2024-01-11T13:33:29;93.03;;;47.25;;
27804;SDS011;15183;51.350;11.102;2024-01-11T13:35:56;82.45;;;41.20;;
27804;SDS011;15183;51.350;11.102;2024-01-11T13:38:22;86.13;;;42.75;;
27804;SDS011;15183;51.350;11.102;2024-01-11T13:40:48;78.30;;;36.80;;
27804;SDS011;15183;51.350;11.102;2024-01-11T13:43:15;75.28;;;38.17;;
27804;SDS011;15183;51.350;11.102;2024-01-11T13:45:42;81.57;;;41.33;;
27804;SDS011;15183;51.350;11.102;2024-01-11T13:48:10;74.32;;;38.92;;
27804;SDS011;15183;51.350;11.102;2024-01-11T13:50:36;86.45;;;42.70;;
27804;SDS011;15183;51.350;11.102;2024-01-11T13:53:03;95.57;;;44.47;;
27804;SDS011;15183;51.350;11.102;2024-01-11T13:55:30;94.53;;;46.35;;
27804;SDS011;15183;51.350;11.102;2024-01-11T13:58:03;99.35;;;45.83;;
27804;SDS011;15183;51.350;11.102;2024-01-11T14:00:29;97.80;;;46.35;;
27804;SDS011;15183;51.350;11.102;2024-01-11T14:02:56;95.88;;;47.15;;
27804;SDS011;15183;51.350;11.102;2024-01-11T14:05:22;93.28;;;45.28;;
27804;SDS011;15183;51.350;11.102;2024-01-11T14:07:49;102.78;;;46.75;;
27804;SDS011;15183;51.350;11.102;2024-01-11T14:10:23;86.63;;;44.83;;
27804;SDS011;15183;51.350;11.102;2024-01-11T14:12:49;97.18;;;44.88;;
27804;SDS011;15183;51.350;11.102;2024-01-11T14:15:16;91.25;;;44.72;;
27804;SDS011;15183;51.350;11.102;2024-01-11T14:17:42;92.47;;;45.33;;
27804;SDS011;15183;51.350;11.102;2024-01-11T14:20:09;90.43;;;44.65;;
27804;SDS011;15183;51.350;11.102;2024-01-11T14:22:42;95.07;;;45.25;;
27804;SDS011;15183;51.350;11.102;2024-01-11T14:25:20;90.80;;;44.33;;
27804;SDS011;15183;51.350;11.102;2024-01-11T14:27:47;100.18;;;47.55;;
27804;SDS011;15183;51.350;11.102;2024-01-11T14:30:14;97.45;;;47.67;;
27804;SDS011;15183;51.350;11.102;2024-01-11T14:32:41;99.40;;;46.70;;
27804;SDS011;15183;51.350;11.102;2024-01-11T14:35:08;105.10;;;48.80;;